EST,Max TemperatureF,Mean TemperatureF,Min TemperatureF,Max Dew PointF,MeanDew PointF,Min DewpointF,Max Humidity, Mean Humidity, Min Humidity, Max Sea Level PressureIn, Mean Sea Level PressureIn, Min Sea Level PressureIn, Max VisibilityMiles, Mean VisibilityMiles, Min VisibilityMiles, Max Wind SpeedMPH, Mean Wind SpeedMPH, Max Gust SpeedMPH,PrecipitationIn, CloudCover, Events, WindDirDegrees
2012-2-1,46,36,26,37,30,24,94,85,68,30.03,29.86,29.75,10,7,2,10,3,,0.01,5,Rain,280
2012-2-2,38,33,27,31,24,15,87,72,59,30.21,30.07,29.94,10,10,10,10,7,,0.00,8,,28
2012-2-3,36,28,21,17,13,5,69,53,28,30.37,30.29,30.22,10,10,10,15,7,20,0.00,4,,309
2012-2-4,37,30,21,24,14,7,76,54,31,30.23,30.17,30.12,10,10,10,16,7,26,0.00,4,Snow,290
2012-2-5,35,25,15,11,8,4,68,50,29,30.19,30.11,30.04,10,10,10,8,6,,0.00,0,,295
2012-2-6,50,38,25,22,17,12,63,45,28,30.02,29.88,29.77,10,10,10,15,10,23,0.00,2,,243
2012-2-7,45,35,24,25,18,3,68,49,36,30.25,30.01,29.86,10,10,10,17,8,24,0.00,4,,291
2012-2-8,36,26,17,8,5,1,55,39,24,30.30,30.20,30.05,10,10,10,12,7,,0.00,5,,236
2012-2-9,45,35,25,16,11,6,61,40,23,30.07,30.00,29.94,10,10,10,14,6,,0.00,2,,263
2012-2-10,50,37,24,23,16,10,72,45,20,30.09,29.99,29.86,10,10,10,14,6,22,0.00,4,,221
2012-2-11,38,33,27,27,23,13,75,64,48,29.86,29.68,29.53,10,9,5,18,6,,0.00,8,Rain-Snow,329
2012-2-12,23,17,11,10,-3,-8,56,43,33,29.87,29.69,29.55,10,10,10,20,14,30,0.00,2,,297
2012-2-13,40,24,9,16,9,-4,57,47,29,29.97,29.84,29.75,10,10,10,17,8,23,0.00,2,,241
2012-2-14,40,30,21,20,16,12,75,53,35,30.11,30.06,29.97,10,10,10,8,4,,0.00,5,,218
2012-2-15,41,35,29,29,26,19,88,71,57,30.23,30.17,30.10,10,10,7,6,1,,0.00,8,Rain,301
2012-2-16,45,36,26,37,31,25,100,83,53,30.27,30.16,30.03,10,7,2,10,4,,0.03,6,Rain,183
2012-2-17,50,42,32,40,33,19,100,79,41,30.03,29.91,29.82,10,6,1,14,6,,0.00,7,Rain,232
2012-2-18,45,38,30,26,19,14,73,52,30,29.93,29.88,29.82,10,10,10,15,8,24,0.00,3,,270
2012-2-19,43,34,26,24,16,14,77,52,30,30.05,30.01,29.96,10,10,10,12,8,,0.00,1,,302
2012-2-20,41,30,20,17,10,4,73,46,22,30.27,30.10,30.00,10,10,10,18,6,25,0.00,2,,313
2012-2-21,39,29,19,31,20,14,92,66,39,30.33,30.17,29.86,10,9,2,16,4,,0.00,5,Rain-Snow,166
2012-2-22,53,40,28,38,28,20,100,77,29,29.84,29.66,29.52,10,7,0,14,3,18,0.00,6,Fog,219
2012-2-23,51,44,35,42,33,21,94,73,39,29.77,29.47,29.36,10,10,7,24,6,39,0.03,6,Rain,269
2012-2-24,41,36,31,40,32,22,100,82,58,29.81,29.59,29.17,10,6,2,15,6,21,0.86,8,Rain,84
2012-2-25,40,34,28,36,23,12,100,62,40,29.73,29.31,29.15,10,10,7,28,16,38,0.01,5,Rain-Snow,271
2012-2-26,37,30,22,12,2,-5,55,34,16,30.44,30.19,29.79,10,10,10,25,17,36,0.00,1,,294
2012-2-27,43,31,19,34,19,2,88,62,39,30.46,30.26,30.01,10,10,10,14,4,,0.00,5,,116
2012-2-28,41,34,27,26,17,11,85,49,30,30.39,30.24,30.01,10,10,10,21,9,30,0.00,4,,305
2012-2-29,33,30,26,32,23,13,100,75,44,30.38,30.22,29.99,10,5,0,14,3,,0.16,8,Fog-Snow,53